createdAt,value
2022-12-05T00:01:24.786Z,27.60
2022-12-05T00:04:13.348Z,29.50
2022-12-05T00:07:00.696Z,29.40
2022-12-05T00:09:46.487Z,28.42
2022-12-05T00:12:32.322Z,29.73
2022-12-05T00:15:18.278Z,28.63
2022-12-05T00:18:04.040Z,29.95
2022-12-05T00:20:50.308Z,28.35
2022-12-05T00:23:37.393Z,31.30
2022-12-05T00:26:23.645Z,28.83
2022-12-05T00:29:09.759Z,28.17
2022-12-05T00:31:55.630Z,30.65
2022-12-05T00:34:41.616Z,29.90
2022-12-05T00:37:27.597Z,28.42
2022-12-05T00:40:15.140Z,27.80
2022-12-05T00:43:00.930Z,29.83
2022-12-05T00:45:46.477Z,29.33
2022-12-05T00:48:32.899Z,29.30
2022-12-05T00:51:20.084Z,27.05
2022-12-05T00:54:07.474Z,30.85
2022-12-05T00:56:56.322Z,30.63
2022-12-05T00:59:42.190Z,31.13
2022-12-05T01:02:28.519Z,31.25
2022-12-05T01:05:13.947Z,30.15
2022-12-05T01:07:59.542Z,29.08
2022-12-05T01:10:53.351Z,30.05
2022-12-05T01:13:40.654Z,29.67
2022-12-05T01:16:28.137Z,28.95
2022-12-05T01:19:17.452Z,28.65
2022-12-05T01:22:03.112Z,30.58
2022-12-05T01:24:48.815Z,30.33
2022-12-05T01:27:34.986Z,30.05
2022-12-05T01:30:23.644Z,31.17
2022-12-05T01:33:10.345Z,25.77
2022-12-05T01:35:56.578Z,28.92
2022-12-05T01:38:44.435Z,28.38
2022-12-05T01:41:32.948Z,30.00
2022-12-05T01:45:01.246Z,30.60
2022-12-05T01:47:49.478Z,28.80
2022-12-05T01:50:36.438Z,29.60
2022-12-05T01:53:23.466Z,28.75
2022-12-05T01:56:09.752Z,29.50
2022-12-05T01:58:56.804Z,29.58
2022-12-05T02:01:44.435Z,29.15
2022-12-05T02:04:32.072Z,28.90
2022-12-05T02:07:19.420Z,29.40
2022-12-05T02:10:06.344Z,28.42
2022-12-05T02:12:52.525Z,27.65
2022-12-05T02:15:43.740Z,28.67
2022-12-05T02:18:42.295Z,28.08
2022-12-05T02:21:54.664Z,27.77
2022-12-05T02:25:19.277Z,27.98
2022-12-05T02:28:24.905Z,26.83
2022-12-05T02:31:16.464Z,26.13
2022-12-05T02:34:07.217Z,26.10
2022-12-05T02:37:02.001Z,26.70
2022-12-05T02:39:53.066Z,27.42
2022-12-05T02:42:45.699Z,19.75
2022-12-05T02:45:35.990Z,25.23
2022-12-05T02:48:27.085Z,25.67
2022-12-05T02:51:15.978Z,26.75
2022-12-05T02:54:05.516Z,25.50
2022-12-05T02:56:53.552Z,27.95
2022-12-05T02:59:40.021Z,27.45
2022-12-05T03:02:27.747Z,25.80
2022-12-05T03:05:24.075Z,23.63
2022-12-05T03:08:14.564Z,28.70
2022-12-05T03:11:02.750Z,26.95
2022-12-05T03:13:51.216Z,28.08
2022-12-05T03:16:41.447Z,27.00
2022-12-05T03:19:32.561Z,20.27
2022-12-05T03:22:27.952Z,27.52
2022-12-05T03:25:14.903Z,28.52
2022-12-05T03:28:06.819Z,25.58
2022-12-05T03:30:55.376Z,28.02
2022-12-05T03:33:45.136Z,28.10
2022-12-05T03:36:39.900Z,25.98
2022-12-05T03:39:30.446Z,26.60
2022-12-05T03:42:21.033Z,27.02
2022-12-05T03:45:11.268Z,28.40
2022-12-05T03:48:04.747Z,28.50
2022-12-05T03:50:53.839Z,27.92
2022-12-05T03:53:46.995Z,27.05
2022-12-05T03:56:37.156Z,25.55
2022-12-05T03:59:30.371Z,27.27
2022-12-05T04:02:22.128Z,29.17
2022-12-05T04:05:13.566Z,27.17
2022-12-05T04:08:06.292Z,27.20
2022-12-05T04:10:57.020Z,28.15
2022-12-05T04:13:49.514Z,27.65
2022-12-05T04:17:00.339Z,25.80
2022-12-05T04:20:10.538Z,27.17
2022-12-05T04:22:57.245Z,26.13
2022-12-05T04:25:54.858Z,25.90
2022-12-05T04:28:57.947Z,24.65
2022-12-05T04:31:48.860Z,26.10
2022-12-05T04:34:37.082Z,26.60
2022-12-05T04:37:26.282Z,25.98
2022-12-05T04:40:18.759Z,25.05
2022-12-05T04:43:06.196Z,24.58
2022-12-05T04:45:57.085Z,24.85
2022-12-05T04:48:48.581Z,18.90
2022-12-05T04:51:36.877Z,24.70
2022-12-05T04:54:28.040Z,25.08
2022-12-05T04:57:19.369Z,24.85
2022-12-05T05:00:06.330Z,24.33
2022-12-05T05:03:00.507Z,24.63
2022-12-05T05:05:48.709Z,25.92
2022-12-05T05:08:34.656Z,24.65
2022-12-05T05:11:22.553Z,24.58
2022-12-05T05:14:08.418Z,24.42
2022-12-05T05:16:54.146Z,20.23
2022-12-05T05:19:41.623Z,25.30
2022-12-05T05:22:27.497Z,24.25
2022-12-05T05:25:13.127Z,23.67
2022-12-05T05:27:58.913Z,23.52
2022-12-05T05:30:44.818Z,24.10
2022-12-05T08:42:20.141Z,26.25
2022-12-05T08:45:06.982Z,25.27
2022-12-05T08:47:55.387Z,37.60
2022-12-05T09:04:37.736Z,23.60
2022-12-05T09:07:23.304Z,24.13
2022-12-05T09:10:10.413Z,24.27
2022-12-05T09:12:57.831Z,24.25
2022-12-05T09:15:45.226Z,24.00
2022-12-05T09:18:30.989Z,31.60
2022-12-05T09:24:02.854Z,22.60
2022-12-05T09:43:34.759Z,24.90
2022-12-05T09:52:11.878Z,26.75
2022-12-05T09:55:02.943Z,24.70
2022-12-05T10:06:20.682Z,39.13
2022-12-05T10:09:21.532Z,29.95
2022-12-05T10:12:37.593Z,33.60
2022-12-05T10:15:30.634Z,41.90
2022-12-05T10:18:28.853Z,95.80
2022-12-05T10:35:21.625Z,25.35
2022-12-05T10:38:14.005Z,25.75
2022-12-05T10:41:03.994Z,23.63
2022-12-05T10:43:49.980Z,26.83
2022-12-05T10:46:36.143Z,55.47
2022-12-05T10:49:23.712Z,27.65
2022-12-05T10:52:14.192Z,24.25
2022-12-05T10:55:03.119Z,23.70
2022-12-05T10:57:52.217Z,24.95
2022-12-05T11:03:33.401Z,34.65
2022-12-05T11:06:24.340Z,30.52
2022-12-05T11:09:22.927Z,24.60
2022-12-05T11:12:17.918Z,22.48
2022-12-05T11:15:06.754Z,23.15
2022-12-05T11:17:53.555Z,22.67
2022-12-05T11:20:40.209Z,21.48
2022-12-05T11:23:28.699Z,30.25
2022-12-05T11:38:03.024Z,26.10
2022-12-05T11:55:30.101Z,23.97
2022-12-05T12:21:41.734Z,20.00
2022-12-05T13:02:13.490Z,13.90
2022-12-05T13:14:13.435Z,16.83
2022-12-05T13:19:49.761Z,15.70
2022-12-05T13:22:37.455Z,13.63
2022-12-05T13:25:27.341Z,12.00
2022-12-05T13:28:28.081Z,23.70
2022-12-05T13:31:17.476Z,30.80
2022-12-05T13:34:03.774Z,25.67
2022-12-05T13:54:24.455Z,2.80
2022-12-05T14:20:24.559Z,3.10
2022-12-05T14:26:16.990Z,5.82
2022-12-05T15:12:17.338Z,7.30
2022-12-05T15:26:47.642Z,5.90
2022-12-05T15:29:35.515Z,7.72
2022-12-05T15:32:25.880Z,8.30
2022-12-05T15:35:14.204Z,39.37
2022-12-05T15:38:08.433Z,17.95
2022-12-05T15:43:41.760Z,7.00
2022-12-05T15:46:28.075Z,5.88
2022-12-05T15:49:21.277Z,6.72
2022-12-05T15:55:08.746Z,6.93
2022-12-05T15:57:59.634Z,6.50
2022-12-05T16:03:41.721Z,8.10
2022-12-05T16:20:36.846Z,11.50
2022-12-05T16:31:55.405Z,6.75
2022-12-05T16:34:42.402Z,9.18
2022-12-05T16:37:29.804Z,8.13
2022-12-05T16:40:22.141Z,9.57
2022-12-05T16:43:20.233Z,10.73
2022-12-05T16:46:44.801Z,21.00
2022-12-05T16:49:38.806Z,19.30
2022-12-05T16:52:32.105Z,13.75
2022-12-05T16:55:17.974Z,8.43
2022-12-05T16:58:03.878Z,8.98
2022-12-05T17:00:50.687Z,8.85
2022-12-05T17:31:29.080Z,12.02
2022-12-05T17:34:17.881Z,22.00
2022-12-05T17:37:04.211Z,16.50
2022-12-05T17:39:50.822Z,11.73
2022-12-05T17:42:38.396Z,13.13
2022-12-05T17:45:24.814Z,13.95
2022-12-05T17:48:12.544Z,26.65
2022-12-05T17:50:58.279Z,12.82
2022-12-05T17:53:44.740Z,9.20
2022-12-05T17:56:30.680Z,15.35
2022-12-05T17:59:17.850Z,25.17
2022-12-05T18:02:03.969Z,41.00
2022-12-05T18:04:49.817Z,90.45
2022-12-05T18:07:36.193Z,52.78
2022-12-05T18:10:24.437Z,21.95
2022-12-05T18:13:10.879Z,13.95
2022-12-05T18:15:59.396Z,24.02
2022-12-05T18:18:45.102Z,16.80
2022-12-05T18:21:30.763Z,17.63
2022-12-05T18:24:16.975Z,17.10
2022-12-05T18:27:02.837Z,16.27
2022-12-05T18:29:48.695Z,15.50
2022-12-05T18:32:36.088Z,13.20
2022-12-05T18:35:40.653Z,13.85
2022-12-05T18:38:26.703Z,20.35
2022-12-05T18:41:12.179Z,10.40
2022-12-05T18:43:58.167Z,14.90
2022-12-05T18:46:44.100Z,18.17
2022-12-05T18:49:31.718Z,26.20
2022-12-05T18:52:18.185Z,15.27
2022-12-05T18:55:16.842Z,20.27
2022-12-05T18:58:03.606Z,20.35
2022-12-05T19:00:49.561Z,30.92
2022-12-05T19:03:35.357Z,13.25
2022-12-05T19:06:24.884Z,12.93
2022-12-05T19:09:13.754Z,15.00
2022-12-05T19:12:00.769Z,19.17
2022-12-05T19:14:47.457Z,11.50
2022-12-05T19:17:34.811Z,13.60
2022-12-05T19:20:20.645Z,9.50
2022-12-05T19:23:07.439Z,11.05
2022-12-05T19:25:54.884Z,11.70
2022-12-05T19:28:40.580Z,18.13
2022-12-05T19:31:28.233Z,16.90
2022-12-05T19:34:15.187Z,10.40
2022-12-05T19:37:01.154Z,16.30
2022-12-05T19:39:50.156Z,11.60
2022-12-05T19:42:36.220Z,10.60
2022-12-05T19:45:21.957Z,10.48
2022-12-05T19:48:07.477Z,11.00
2022-12-05T19:50:54.883Z,15.10
2022-12-05T19:53:42.642Z,14.68
2022-12-05T19:56:33.407Z,9.80
2022-12-05T19:59:19.649Z,10.77
2022-12-05T20:02:05.732Z,9.32
2022-12-05T20:04:51.722Z,9.10
2022-12-05T20:07:37.492Z,9.32
2022-12-05T20:10:23.408Z,9.60
2022-12-05T20:13:38.541Z,12.45
2022-12-05T20:16:19.621Z,15.38
2022-12-05T20:19:05.840Z,20.65
2022-12-05T20:21:51.371Z,14.50
2022-12-05T20:24:37.658Z,10.73
2022-12-05T20:27:23.603Z,13.63
2022-12-05T20:30:11.747Z,60.42
2022-12-05T20:35:43.756Z,16.00
2022-12-05T20:38:29.484Z,17.25
2022-12-05T20:41:17.106Z,19.33
2022-12-05T20:44:04.692Z,13.13
2022-12-05T20:46:52.493Z,14.32
2022-12-05T20:49:38.415Z,14.27
2022-12-05T20:52:24.269Z,13.07
2022-12-05T20:55:10.686Z,17.20
2022-12-05T20:57:56.233Z,13.38
2022-12-05T21:00:43.722Z,15.48
2022-12-05T21:03:31.185Z,13.63
2022-12-05T21:06:19.193Z,10.93
2022-12-05T21:09:14.821Z,13.38
2022-12-05T21:12:00.640Z,13.93
2022-12-05T21:14:47.006Z,17.73
2022-12-05T21:17:33.366Z,26.40
2022-12-05T21:20:21.378Z,22.02
2022-12-05T21:23:07.792Z,18.58
2022-12-05T21:25:55.113Z,10.73
2022-12-05T21:28:43.029Z,11.80
2022-12-05T21:31:42.879Z,10.55
2022-12-05T21:34:29.469Z,12.38
2022-12-05T21:37:18.255Z,10.65
2022-12-05T21:40:04.295Z,18.83
2022-12-05T21:42:50.626Z,12.88
2022-12-05T21:45:43.095Z,13.15
2022-12-05T21:48:31.013Z,10.32
2022-12-05T21:51:16.827Z,10.68
2022-12-05T21:54:04.524Z,9.60
2022-12-05T21:56:50.481Z,10.13
2022-12-05T21:59:36.463Z,9.80
2022-12-05T22:02:22.486Z,9.57
2022-12-05T22:05:09.679Z,9.38
2022-12-05T22:07:56.033Z,10.13
2022-12-05T22:10:43.465Z,12.30
2022-12-05T22:13:30.455Z,12.00
2022-12-05T22:16:17.284Z,10.25
2022-12-05T22:19:03.589Z,9.18
2022-12-05T22:21:49.686Z,8.70
2022-12-05T22:24:35.378Z,7.63
2022-12-05T22:27:23.115Z,7.95
2022-12-05T22:30:09.707Z,8.23
2022-12-05T22:32:55.324Z,8.23
2022-12-05T22:35:41.303Z,8.30
2022-12-05T22:38:29.602Z,8.48
2022-12-05T22:41:17.581Z,8.23
2022-12-05T22:44:05.532Z,8.38
2022-12-05T22:46:51.223Z,8.15
2022-12-05T22:49:37.258Z,7.82
2022-12-05T22:52:22.820Z,8.20
2022-12-05T22:55:09.158Z,8.32
2022-12-05T22:57:55.133Z,8.23
2022-12-05T23:00:42.742Z,7.53
2022-12-05T23:03:28.664Z,8.85
2022-12-05T23:06:16.432Z,8.20
2022-12-05T23:09:03.617Z,8.02
2022-12-05T23:11:50.578Z,7.85
2022-12-05T23:14:36.602Z,8.35
2022-12-05T23:17:24.164Z,8.57
2022-12-05T23:20:10.968Z,7.80
2022-12-05T23:22:57.486Z,7.78
2022-12-05T23:25:43.154Z,7.57
2022-12-05T23:28:29.229Z,8.30
2022-12-05T23:31:15.341Z,8.07
2022-12-05T23:34:04.259Z,7.90
2022-12-05T23:36:50.546Z,7.72
2022-12-05T23:39:36.480Z,8.15
2022-12-05T23:42:23.033Z,8.25
2022-12-05T23:45:09.872Z,8.00
2022-12-05T23:47:56.876Z,7.80
2022-12-05T23:50:55.687Z,8.48
2022-12-05T23:53:43.761Z,8.57
2022-12-05T23:56:31.932Z,7.72
2022-12-05T23:59:17.873Z,7.65
